createdAt,value
2018-06-14T00:01:18.051Z,91.70
2018-06-14T00:04:16.469Z,91.50
2018-06-14T00:07:15.122Z,90.80
2018-06-14T00:10:13.805Z,91.30
2018-06-14T00:13:12.341Z,91.70
2018-06-14T00:16:10.768Z,91.80
2018-06-14T00:19:08.861Z,91.90
2018-06-14T00:22:07.450Z,92.30
2018-06-14T00:25:05.909Z,92.50
2018-06-14T00:28:04.094Z,92.60
2018-06-14T00:31:02.270Z,92.90
2018-06-14T00:34:00.516Z,92.70
2018-06-14T00:36:58.957Z,92.20
2018-06-14T00:39:57.530Z,91.10
2018-06-14T00:42:55.819Z,91.80
2018-06-14T00:45:54.093Z,91.80
2018-06-14T00:48:52.190Z,92.50
2018-06-14T00:51:50.666Z,92.60
2018-06-14T00:54:48.950Z,92.60
2018-06-14T00:57:48.476Z,92.60
2018-06-14T01:00:47.041Z,92.60
2018-06-14T01:03:45.273Z,92.50
2018-06-14T01:06:43.550Z,92.50
2018-06-14T01:09:41.808Z,92.70
2018-06-14T01:12:40.237Z,92.80
2018-06-14T01:15:38.647Z,93.00
2018-06-14T01:18:37.129Z,92.90
2018-06-14T01:21:35.744Z,92.40
2018-06-14T01:24:33.875Z,92.80
2018-06-14T01:27:32.054Z,92.70
2018-06-14T01:30:30.526Z,92.60
2018-06-14T01:33:29.166Z,92.60
2018-06-14T01:36:27.498Z,92.60
2018-06-14T01:39:25.938Z,92.80
2018-06-14T01:42:24.277Z,93.20
2018-06-14T01:45:22.456Z,93.50
2018-06-14T01:48:20.917Z,93.50
2018-06-14T01:51:19.283Z,93.40
2018-06-14T01:54:17.924Z,93.80
2018-06-14T01:57:16.201Z,94.10
2018-06-14T02:00:14.286Z,93.60
2018-06-14T02:03:12.818Z,93.10
2018-06-14T02:06:11.512Z,93.30
2018-06-14T02:09:09.835Z,93.20
2018-06-14T02:12:08.654Z,92.90
2018-06-14T02:15:06.878Z,93.10
2018-06-14T02:18:06.456Z,93.10
2018-06-14T02:21:05.194Z,93.50
2018-06-14T02:24:03.284Z,93.50
2018-06-14T02:27:01.476Z,93.70
2018-06-14T02:29:59.680Z,93.60
2018-06-14T02:32:58.006Z,93.90
2018-06-14T02:35:56.378Z,94.00
2018-06-14T02:38:55.267Z,93.90
2018-06-14T02:41:53.349Z,93.90
2018-06-14T02:44:51.855Z,93.90
2018-06-14T02:47:50.055Z,93.60
2018-06-14T02:50:47.774Z,93.60
2018-06-14T02:53:45.829Z,93.50
2018-06-14T02:56:44.043Z,94.10
2018-06-14T02:59:42.696Z,93.60
2018-06-14T03:02:41.509Z,93.50
2018-06-14T03:05:39.689Z,93.30
2018-06-14T03:08:38.104Z,93.20
2018-06-14T03:11:36.479Z,93.50
2018-06-14T03:14:34.649Z,93.50
2018-06-14T03:17:32.918Z,93.60
2018-06-14T03:20:33.574Z,93.10
2018-06-14T03:23:31.940Z,92.50
2018-06-14T03:26:30.239Z,92.30
2018-06-14T03:29:28.726Z,92.10
2018-06-14T03:32:26.683Z,91.60
2018-06-14T03:35:25.131Z,90.60
2018-06-14T03:38:23.543Z,90.30
2018-06-14T03:41:21.960Z,89.60
2018-06-14T03:44:20.174Z,88.30
2018-06-14T03:47:18.276Z,87.20
2018-06-14T03:50:16.974Z,86.50
2018-06-14T03:53:15.278Z,86.30
2018-06-14T03:56:13.403Z,85.90
2018-06-14T03:59:11.372Z,85.80
2018-06-14T04:02:09.586Z,83.90
2018-06-14T04:05:07.991Z,82.90
2018-06-14T04:08:06.356Z,79.90
2018-06-14T04:11:05.102Z,79.60
2018-06-14T04:14:03.256Z,76.30
2018-06-14T04:17:01.527Z,75.30
2018-06-14T04:19:59.914Z,74.40
2018-06-14T04:22:58.270Z,73.60
2018-06-14T04:25:56.372Z,73.60
2018-06-14T04:28:55.112Z,74.80
2018-06-14T04:31:53.319Z,75.00
2018-06-14T04:34:51.544Z,73.00
2018-06-14T04:37:49.592Z,70.70
2018-06-14T04:40:48.270Z,67.90
2018-06-14T04:43:46.561Z,67.20
2018-06-14T04:46:44.814Z,66.20
2018-06-14T04:49:42.906Z,65.80
2018-06-14T04:52:41.900Z,63.80
2018-06-14T04:55:40.155Z,61.90
2018-06-14T04:58:38.419Z,61.60
2018-06-14T05:01:36.590Z,61.40
2018-06-14T05:04:35.151Z,60.20
2018-06-14T05:07:33.490Z,58.90
2018-06-14T05:10:32.734Z,57.70
2018-06-14T05:13:30.914Z,60.00
2018-06-14T05:16:28.938Z,57.90
2018-06-14T05:19:27.382Z,56.20
2018-06-14T05:22:25.926Z,56.70
2018-06-14T05:25:24.771Z,55.90
2018-06-14T05:28:23.559Z,54.60
2018-06-14T05:31:21.538Z,55.20
2018-06-14T05:34:19.903Z,54.30
2018-06-14T05:37:17.978Z,54.30
2018-06-14T05:40:16.294Z,52.40
2018-06-14T05:43:15.734Z,54.60
2018-06-14T05:46:14.255Z,54.80
2018-06-14T05:49:13.778Z,55.40
2018-06-14T05:52:12.221Z,57.00
2018-06-14T05:55:10.536Z,55.80
2018-06-14T05:58:08.909Z,55.10
2018-06-14T06:01:07.327Z,53.60
2018-06-14T06:04:05.561Z,51.80
2018-06-14T06:07:04.082Z,50.60
2018-06-14T06:10:02.225Z,53.00
2018-06-14T06:13:00.715Z,52.50
2018-06-14T06:15:59.010Z,51.90
2018-06-14T06:18:57.079Z,51.10
2018-06-14T06:21:55.356Z,47.20
2018-06-14T06:24:53.747Z,50.40
2018-06-14T06:27:51.832Z,50.90
2018-06-14T06:30:50.175Z,50.10
2018-06-14T06:33:48.458Z,48.50
2018-06-14T06:36:47.615Z,49.30
2018-06-14T06:39:45.658Z,49.60
2018-06-14T06:42:44.067Z,47.90
2018-06-14T06:45:42.409Z,48.50
2018-06-14T06:48:40.826Z,47.50
2018-06-14T06:51:39.166Z,45.50
2018-06-14T06:54:37.957Z,44.90
2018-06-14T06:57:36.798Z,42.60
2018-06-14T07:00:34.946Z,40.50
2018-06-14T07:03:33.185Z,41.80
2018-06-14T07:06:31.352Z,42.60
2018-06-14T07:09:30.724Z,43.90
2018-06-14T07:12:29.206Z,42.50
2018-06-14T07:15:27.730Z,41.10
2018-06-14T07:18:25.911Z,37.90
2018-06-14T07:21:24.322Z,38.70
2018-06-14T07:24:22.512Z,38.40
2018-06-14T07:27:21.022Z,42.00
2018-06-14T07:30:19.383Z,41.80
2018-06-14T07:33:17.694Z,40.40
2018-06-14T07:36:15.890Z,42.70
2018-06-14T07:39:14.391Z,43.80
2018-06-14T07:42:12.441Z,42.20
2018-06-14T07:45:10.684Z,42.30
2018-06-14T07:48:11.454Z,40.40
2018-06-14T07:51:09.453Z,39.10
2018-06-14T07:54:07.764Z,37.00
2018-06-14T07:57:06.401Z,38.00
2018-06-14T08:00:04.781Z,38.10
2018-06-14T08:03:03.155Z,38.00
2018-06-14T08:06:01.550Z,36.40
2018-06-14T08:08:59.846Z,34.90
2018-06-14T08:11:58.363Z,35.70
2018-06-14T08:14:57.240Z,39.40
2018-06-14T08:17:55.799Z,41.30
2018-06-14T08:20:53.998Z,38.50
2018-06-14T08:23:52.251Z,35.60
2018-06-14T08:26:50.579Z,36.40
2018-06-14T08:29:48.857Z,36.70
2018-06-14T08:32:47.031Z,37.60
2018-06-14T08:35:45.336Z,39.30
2018-06-14T08:38:43.990Z,41.30
2018-06-14T08:41:42.269Z,38.40
2018-06-14T08:44:40.677Z,34.90
2018-06-14T08:47:39.084Z,34.80
2018-06-14T08:50:37.359Z,34.80
2018-06-14T08:53:35.714Z,37.60
2018-06-14T08:56:33.927Z,37.10
2018-06-14T09:02:23.662Z,37.20
2018-06-14T09:05:21.927Z,35.60
2018-06-14T09:08:20.208Z,34.40
2018-06-14T09:11:18.533Z,33.80
2018-06-14T09:14:17.919Z,33.90
2018-06-14T09:17:16.584Z,36.60
2018-06-14T09:20:15.162Z,36.80
2018-06-14T09:23:13.693Z,36.90
2018-06-14T09:26:11.967Z,33.80
2018-06-14T09:29:10.262Z,34.70
2018-06-14T09:32:08.840Z,33.30
2018-06-14T09:35:07.083Z,35.00
2018-06-14T09:38:05.629Z,35.00
2018-06-14T09:41:03.868Z,36.00
2018-06-14T09:44:01.914Z,35.20
2018-06-14T09:46:59.978Z,33.20
2018-06-14T09:49:58.214Z,31.50
2018-06-14T09:52:56.903Z,33.10
2018-06-14T09:55:55.385Z,34.30
2018-06-14T09:58:53.550Z,32.00
2018-06-14T10:01:51.907Z,30.80
2018-06-14T10:04:50.132Z,30.70
2018-06-14T10:07:48.476Z,30.80
2018-06-14T10:10:46.774Z,31.90
2018-06-14T10:13:45.386Z,32.30
2018-06-14T10:16:43.591Z,31.40
2018-06-14T10:19:43.180Z,33.30
2018-06-14T10:22:41.292Z,34.20
2018-06-14T10:28:29.531Z,33.80
2018-06-14T10:31:27.575Z,32.50
2018-06-14T10:34:25.962Z,30.40
2018-06-14T10:37:24.252Z,31.60
2018-06-14T10:40:22.653Z,32.80
2018-06-14T10:43:21.508Z,31.40
2018-06-14T10:46:19.395Z,34.10
2018-06-14T10:49:17.713Z,34.00
2018-06-14T10:52:16.815Z,33.30
2018-06-14T10:55:15.166Z,34.40
2018-06-14T10:58:13.705Z,35.70
2018-06-14T11:01:12.645Z,34.00
2018-06-14T11:04:10.962Z,34.00
2018-06-14T11:07:09.348Z,35.00
2018-06-14T11:10:07.393Z,36.60
2018-06-14T11:13:05.687Z,34.60
2018-06-14T11:16:03.930Z,32.00
2018-06-14T11:19:02.322Z,31.30
2018-06-14T11:22:00.674Z,34.70
2018-06-14T11:24:59.014Z,33.50
2018-06-14T11:27:57.707Z,34.80
2018-06-14T11:30:55.814Z,35.10
2018-06-14T11:33:54.147Z,37.00
2018-06-14T11:36:52.626Z,35.40
2018-06-14T11:39:51.510Z,38.40
2018-06-14T11:42:50.940Z,38.20
2018-06-14T11:45:49.094Z,41.40
2018-06-14T11:48:47.265Z,40.40
2018-06-14T11:51:45.782Z,40.30
2018-06-14T11:54:44.064Z,40.10
2018-06-14T11:57:42.588Z,40.00
2018-06-14T12:00:40.714Z,39.60
2018-06-14T12:03:39.183Z,40.30
2018-06-14T12:06:37.310Z,38.40
2018-06-14T12:09:35.597Z,39.90
2018-06-14T12:12:33.646Z,40.40
2018-06-14T12:15:32.038Z,39.50
2018-06-14T12:18:30.214Z,39.40
2018-06-14T12:21:28.656Z,40.30
2018-06-14T12:24:26.766Z,39.80
2018-06-14T12:27:25.092Z,40.10
2018-06-14T12:30:23.214Z,40.50
2018-06-14T12:33:21.843Z,40.80
2018-06-14T12:36:20.129Z,41.80
2018-06-14T12:39:18.430Z,40.00
2018-06-14T12:42:16.680Z,40.10
2018-06-14T12:45:14.974Z,40.20
2018-06-14T12:48:13.211Z,40.30
2018-06-14T12:51:11.623Z,40.80
2018-06-14T12:54:11.005Z,40.70
2018-06-14T12:57:09.641Z,39.30
2018-06-14T13:00:08.109Z,38.50
2018-06-14T13:03:06.381Z,39.00
2018-06-14T13:06:04.682Z,39.20
2018-06-14T13:09:03.282Z,39.90
2018-06-14T13:12:01.623Z,40.40
2018-06-14T13:15:00.071Z,40.10
2018-06-14T13:17:58.287Z,39.40
2018-06-14T13:20:56.999Z,39.70
2018-06-14T13:23:55.256Z,39.40
2018-06-14T13:26:53.513Z,39.20
2018-06-14T13:29:51.916Z,38.40
2018-06-14T13:32:50.079Z,40.60
2018-06-14T13:35:48.842Z,40.30
2018-06-14T13:38:48.242Z,40.40
2018-06-14T13:41:46.404Z,39.70
2018-06-14T13:44:45.100Z,39.20
2018-06-14T13:47:43.320Z,39.80
2018-06-14T13:50:41.574Z,39.90
2018-06-14T13:53:39.697Z,39.90
2018-06-14T13:56:37.918Z,42.80
2018-06-14T13:59:35.912Z,41.20
2018-06-14T14:02:34.804Z,40.30
2018-06-14T14:05:32.650Z,40.40
2018-06-14T14:08:30.918Z,40.90
2018-06-14T14:11:29.519Z,41.10
2018-06-14T14:14:28.039Z,39.40
2018-06-14T14:17:26.300Z,39.30
2018-06-14T14:20:24.371Z,39.10
2018-06-14T14:23:22.746Z,39.20
2018-06-14T14:26:20.757Z,39.20
2018-06-14T14:29:19.092Z,39.40
2018-06-14T14:32:17.249Z,39.70
2018-06-14T14:35:15.432Z,40.60
2018-06-14T14:38:14.620Z,40.00
2018-06-14T14:41:13.974Z,41.30
2018-06-14T14:44:13.357Z,39.30
2018-06-14T14:47:12.369Z,41.00
2018-06-14T14:50:10.588Z,40.90
2018-06-14T14:53:09.020Z,41.60
2018-06-14T14:56:07.644Z,41.10
2018-06-14T14:59:06.813Z,40.00
2018-06-14T15:02:05.089Z,42.40
2018-06-14T15:05:03.209Z,43.00
2018-06-14T15:08:01.300Z,42.20
2018-06-14T15:11:00.064Z,41.60
2018-06-14T15:13:58.829Z,41.70
2018-06-14T15:16:57.044Z,42.10
2018-06-14T15:19:55.427Z,42.00
2018-06-14T15:22:53.857Z,42.40
2018-06-14T15:25:52.371Z,43.10
2018-06-14T15:28:50.759Z,43.70
2018-06-14T15:31:48.853Z,44.30
2018-06-14T15:34:47.232Z,44.10
2018-06-14T15:37:45.487Z,44.80
2018-06-14T15:40:44.302Z,44.80
2018-06-14T15:43:42.695Z,45.60
2018-06-14T15:46:42.301Z,44.20
2018-06-14T15:49:40.750Z,45.00
2018-06-14T15:52:39.176Z,45.00
2018-06-14T15:56:51.730Z,45.30
2018-06-14T15:59:50.296Z,44.80
2018-06-14T16:02:48.286Z,45.20
2018-06-14T16:05:46.595Z,45.40
2018-06-14T16:08:45.020Z,46.20
2018-06-14T16:11:43.630Z,46.90
2018-06-14T16:14:41.847Z,48.40
2018-06-14T16:17:40.035Z,49.70
2018-06-14T16:20:39.133Z,50.10
2018-06-14T16:23:37.349Z,54.70
2018-06-14T16:26:35.563Z,57.40
2018-06-14T16:29:34.322Z,57.90
2018-06-14T16:32:32.700Z,57.90
2018-06-14T16:35:31.471Z,58.80
2018-06-14T16:38:29.877Z,60.90
2018-06-14T16:41:27.930Z,61.90
2018-06-14T16:44:26.017Z,63.30
2018-06-14T16:47:24.233Z,67.10
2018-06-14T16:50:22.458Z,69.20
2018-06-14T16:53:20.882Z,71.80
2018-06-14T16:56:18.956Z,73.20
2018-06-14T16:59:17.722Z,74.70
2018-06-14T17:02:15.832Z,78.00
2018-06-14T17:05:14.010Z,78.40
2018-06-14T17:08:12.486Z,81.30
2018-06-14T17:11:11.894Z,82.90
2018-06-14T17:14:10.291Z,83.50
2018-06-14T17:17:08.617Z,83.60
2018-06-14T17:20:07.444Z,84.60
2018-06-14T17:23:06.351Z,85.50
2018-06-14T17:26:04.746Z,86.10
2018-06-14T17:29:03.282Z,86.30
2018-06-14T17:32:01.600Z,86.80
2018-06-14T17:35:00.795Z,86.20
2018-06-14T17:37:59.192Z,87.70
2018-06-14T17:40:57.616Z,87.20
2018-06-14T17:43:55.965Z,87.30
2018-06-14T17:46:54.676Z,88.10
2018-06-14T17:49:53.276Z,87.90
2018-06-14T17:52:51.699Z,89.20
2018-06-14T17:55:49.970Z,88.30
2018-06-14T17:58:48.170Z,89.20
2018-06-14T18:01:48.156Z,88.20
2018-06-14T18:04:46.283Z,88.50
2018-06-14T18:07:44.707Z,89.70
2018-06-14T18:10:44.480Z,89.50
2018-06-14T18:13:42.726Z,90.10
2018-06-14T18:16:42.266Z,90.10
2018-06-14T18:19:40.728Z,89.70
2018-06-14T18:22:38.982Z,89.40
2018-06-14T18:25:37.230Z,90.00
2018-06-14T18:28:35.423Z,89.90
2018-06-14T18:31:33.852Z,89.80
2018-06-14T18:34:32.246Z,90.50
2018-06-14T18:37:30.465Z,90.70
2018-06-14T18:40:28.947Z,90.90
2018-06-14T18:43:26.998Z,91.20
2018-06-14T18:46:24.991Z,91.10
2018-06-14T18:49:23.561Z,90.90
2018-06-14T18:52:21.807Z,91.00
2018-06-14T18:55:20.274Z,90.70
2018-06-14T18:58:18.887Z,90.50
2018-06-14T19:01:17.174Z,90.60
2018-06-14T19:04:15.983Z,90.50
2018-06-14T19:07:14.263Z,90.70
2018-06-14T19:10:12.969Z,90.70
2018-06-14T19:13:11.323Z,91.00
2018-06-14T19:16:09.486Z,91.00
2018-06-14T19:19:08.312Z,91.00
2018-06-14T19:22:06.668Z,91.10
2018-06-14T19:25:04.867Z,90.70
2018-06-14T19:28:03.283Z,91.40
2018-06-14T19:31:01.458Z,91.30
2018-06-14T19:33:59.994Z,91.60
2018-06-14T19:36:58.211Z,91.60
2018-06-14T19:39:56.631Z,91.70
2018-06-14T19:42:54.628Z,91.50
2018-06-14T19:45:53.514Z,91.40
2018-06-14T19:48:51.663Z,91.40
2018-06-14T19:51:50.071Z,91.30
2018-06-14T19:54:49.035Z,91.50
2018-06-14T19:57:47.775Z,92.50
2018-06-14T20:00:46.067Z,92.20
2018-06-14T20:03:44.281Z,92.10
2018-06-14T20:06:42.933Z,92.70
2018-06-14T20:09:41.303Z,92.40
2018-06-14T20:12:39.802Z,92.90
2018-06-14T20:15:39.302Z,93.30
2018-06-14T20:18:37.433Z,93.30
2018-06-14T20:21:35.561Z,93.10
2018-06-14T20:24:33.614Z,93.30
2018-06-14T20:27:31.829Z,93.20
2018-06-14T20:30:29.998Z,93.60
2018-06-14T20:33:28.193Z,94.00
2018-06-14T20:36:26.416Z,93.50
2018-06-14T20:39:24.532Z,93.30
2018-06-14T20:42:22.751Z,93.30
2018-06-14T20:45:21.330Z,93.30
2018-06-14T20:48:19.418Z,93.30
2018-06-14T20:51:17.765Z,93.20
2018-06-14T20:54:16.499Z,93.40
2018-06-14T20:57:14.862Z,93.60
2018-06-14T21:00:12.966Z,93.60
2018-06-14T21:03:11.840Z,93.80
2018-06-14T21:06:10.109Z,93.60
2018-06-14T21:09:08.211Z,93.60
2018-06-14T21:12:07.777Z,93.80
2018-06-14T21:15:06.467Z,94.00
2018-06-14T21:18:04.626Z,94.00
2018-06-14T21:21:03.087Z,93.90
2018-06-14T21:24:01.421Z,94.40
2018-06-14T21:27:00.185Z,94.20
2018-06-14T21:29:58.503Z,94.30
2018-06-14T21:32:56.614Z,94.40
2018-06-14T21:35:54.850Z,94.10
2018-06-14T21:38:53.366Z,94.10
2018-06-14T21:41:51.540Z,94.20
2018-06-14T21:44:50.045Z,94.20
2018-06-14T21:47:48.273Z,93.90
2018-06-14T21:50:46.382Z,93.90
2018-06-14T21:53:44.427Z,94.10
2018-06-14T21:56:42.482Z,93.60
2018-06-14T21:59:40.807Z,93.40
2018-06-14T22:02:39.249Z,93.70
2018-06-14T22:05:38.282Z,94.00
2018-06-14T22:08:36.472Z,94.00
2018-06-14T22:11:35.063Z,93.80
2018-06-14T22:14:33.438Z,93.70
2018-06-14T22:17:31.674Z,93.60
2018-06-14T22:20:29.807Z,94.00
2018-06-14T22:23:28.593Z,93.80
2018-06-14T22:26:26.542Z,93.80
2018-06-14T22:29:24.871Z,93.90
2018-06-14T22:32:23.143Z,93.70
2018-06-14T22:35:36.413Z,94.10
2018-06-14T22:38:34.626Z,94.10
2018-06-14T22:41:32.869Z,94.30
2018-06-14T22:44:31.109Z,94.70
2018-06-14T22:47:29.717Z,94.40
2018-06-14T22:50:27.837Z,94.90
2018-06-14T22:53:26.170Z,95.10
2018-06-14T22:56:24.862Z,94.90
2018-06-14T22:59:23.292Z,94.80
2018-06-14T23:02:21.635Z,94.90
2018-06-14T23:05:19.918Z,95.00
2018-06-14T23:08:18.049Z,94.80
2018-06-14T23:11:28.048Z,95.30
2018-06-14T23:14:26.125Z,95.30
2018-06-14T23:17:32.535Z,95.40
2018-06-14T23:20:31.729Z,95.70
2018-06-14T23:23:30.389Z,95.70
2018-06-14T23:26:28.430Z,95.50
2018-06-14T23:29:26.722Z,95.40
2018-06-14T23:32:25.162Z,95.20
2018-06-14T23:35:24.782Z,95.30
2018-06-14T23:38:22.998Z,95.60
2018-06-14T23:41:21.062Z,95.40
2018-06-14T23:44:19.420Z,95.40
2018-06-14T23:47:17.663Z,95.50
2018-06-14T23:50:16.126Z,95.30
2018-06-14T23:53:14.279Z,95.40
2018-06-14T23:56:12.571Z,95.30
2018-06-14T23:59:11.061Z,95.40
